Time;durP1;ratioP1;P1;durP2;ratioP2;P2;SDS_P1;SDS_P2;PMS_P1;PMS_P2;Temp;Humidity;BMP_temperature;BMP_pressure;BME280_temperature;BME280_humidity;BME280_pressure;Samples;Min_cycle;Max_cycle;Signal;HPM_P1;HPM_P2
2023/10/29 00:02:14;;;;;;;12.55;8.88;;;12.10;99.90;;;;;;5051866;28;20059;-59
2023/10/29 00:04:39;;;;;;;14.68;9.98;;;11.70;99.90;;;;;;5052113;28;20033;-59
2023/10/29 00:07:05;;;;;;;14.70;9.35;;;11.60;99.90;;;;;;5052142;28;20033;-58
2023/10/29 00:09:31;;;;;;;12.98;9.10;;;12.10;99.90;;;;;;5052417;28;20037;-57
2023/10/29 00:11:57;;;;;;;12.75;11.45;;;11.60;99.90;;;;;;5051892;28;20135;-59
2023/10/29 00:14:23;;;;;;;14.02;12.57;;;12.20;99.90;;;;;;5052381;28;20059;-59
2023/10/29 00:16:49;;;;;;;13.77;12.45;;;11.60;99.90;;;;;;5049645;28;20032;-58
2023/10/29 00:19:15;;;;;;;12.02;8.55;;;11.60;99.90;;;;;;5051506;28;20041;-56
2023/10/29 00:21:40;;;;;;;14.10;11.88;;;11.80;99.90;;;;;;5051804;28;20036;-59
2023/10/29 00:24:07;;;;;;;11.75;8.23;;;11.70;99.90;;;;;;5052057;28;20045;-59
2023/10/29 00:26:32;;;;;;;11.77;10.68;;;11.70;99.90;;;;;;5051188;28;20044;-58
2023/10/29 00:28:58;;;;;;;12.57;8.45;;;11.80;99.90;;;;;;5033621;28;20037;-57
2023/10/29 00:31:24;;;;;;;14.90;9.23;;;11.80;99.90;;;;;;5051978;28;20048;-58
2023/10/29 00:33:50;;;;;;;13.60;9.02;;;12.00;99.90;;;;;;5032798;28;20033;-60
2023/10/29 00:36:16;;;;;;;13.93;9.63;;;11.70;99.90;;;;;;5051567;28;20041;-58
2023/10/29 00:38:42;;;;;;;15.32;9.68;;;11.70;99.90;;;;;;5051845;28;20511;-58
2023/10/29 00:41:07;;;;;;;11.77;8.07;;;11.90;99.90;;;;;;5050643;28;20051;-58
2023/10/29 00:43:43;;;;;;;11.73;7.90;;;12.30;99.90;;;;;;5033356;28;20028;-57
2023/10/29 00:46:12;;;;;;;13.00;8.38;;;12.30;99.90;;;;;;5034810;28;20398;-58
2023/10/29 00:48:38;;;;;;;12.50;10.60;;;12.10;99.90;;;;;;5051615;28;20044;-57
2023/10/29 00:51:04;;;;;;;12.48;7.95;;;12.40;99.90;;;;;;5050885;28;20123;-59
2023/10/29 00:53:30;;;;;;;9.90;6.50;;;11.90;99.90;;;;;;5033708;28;20049;-57
2023/10/29 00:55:58;;;;;;;10.93;7.47;;;12.00;99.90;;;;;;5051274;28;20052;-58
2023/10/29 00:58:24;;;;;;;10.50;8.07;;;12.40;99.90;;;;;;5051572;28;20451;-58
2023/10/29 01:00:50;;;;;;;8.07;7.20;;;12.60;99.90;;;;;;5051069;28;20103;-57
2023/10/29 01:03:18;;;;;;;10.88;5.85;;;12.50;99.90;;;;;;5051370;28;20087;-57
2023/10/29 01:05:47;;;;;;;10.23;5.65;;;12.30;99.90;;;;;;5051042;28;20392;-59
2023/10/29 01:08:14;;;;;;;8.88;5.88;;;12.40;99.90;;;;;;5050672;28;20107;-58
2023/10/29 01:10:39;;;;;;;9.63;4.60;;;12.70;99.90;;;;;;5050313;28;20095;-58
2023/10/29 01:13:05;;;;;;;8.23;4.68;;;12.30;99.90;;;;;;5050561;28;20469;-59
2023/10/29 01:15:32;;;;;;;8.23;4.55;;;12.70;99.90;;;;;;5050070;28;20029;-56
2023/10/29 01:17:58;;;;;;;7.85;3.83;;;12.80;99.90;;;;;;5050808;28;20052;-58
2023/10/29 01:20:24;;;;;;;9.07;3.90;;;12.40;99.90;;;;;;4999720;28;20151;-59
2023/10/29 01:22:50;;;;;;;8.15;3.80;;;12.90;99.90;;;;;;5050964;28;20492;-59
2023/10/29 01:25:15;;;;;;;8.93;3.40;;;12.40;99.90;;;;;;5033128;28;20052;-58
2023/10/29 01:27:42;;;;;;;8.07;3.17;;;12.90;99.90;;;;;;5050628;28;20044;-58
2023/10/29 01:30:08;;;;;;;5.93;2.90;;;13.00;99.90;;;;;;5050730;28;20041;-57
2023/10/29 01:32:34;;;;;;;7.43;2.88;;;12.40;99.90;;;;;;5050981;28;20033;-59
2023/10/29 01:35:00;;;;;;;5.95;2.00;;;12.50;99.90;;;;;;5050249;28;20033;-57
2023/10/29 01:37:26;;;;;;;7.50;2.25;;;12.60;99.90;;;;;;5050115;28;20502;-57
2023/10/29 01:39:51;;;;;;;4.93;2.10;;;12.80;99.90;;;;;;5048949;28;20032;-58
2023/10/29 01:42:17;;;;;;;5.10;1.90;;;13.10;99.90;;;;;;5050288;28;20094;-59
2023/10/29 01:44:43;;;;;;;5.30;1.65;;;13.10;99.90;;;;;;5050539;28;20040;-60
2023/10/29 01:47:08;;;;;;;5.80;1.98;;;12.80;99.90;;;;;;5050698;28;20124;-57
2023/10/29 01:49:34;;;;;;;4.53;1.70;;;12.90;99.90;;;;;;5050233;28;20037;-58
2023/10/29 01:52:00;;;;;;;4.57;1.80;;;13.00;99.90;;;;;;5050484;28;20041;-58
2023/10/29 01:54:26;;;;;;;6.63;1.50;;;12.90;99.90;;;;;;5050169;28;20477;-58
2023/10/29 01:56:52;;;;;;;4.53;1.70;;;12.70;99.90;;;;;;5049406;28;20060;-57
2023/10/29 01:59:17;;;;;;;5.95;1.50;;;13.30;99.90;;;;;;5049669;28;20041;-57
2023/10/29 02:01:43;;;;;;;4.78;1.60;;;13.30;99.90;;;;;;5050540;28;20049;-58
2023/10/29 02:04:10;;;;;;;6.50;1.63;;;13.00;99.90;;;;;;5050180;28;20511;-59
2023/10/29 02:06:39;;;;;;;3.05;1.27;;;13.10;99.90;;;;;;5050326;28;20473;-58
2023/10/29 02:09:09;;;;;;;4.18;1.60;;;13.40;99.90;;;;;;5049617;28;20120;-59
2023/10/29 02:11:36;;;;;;;7.20;1.52;;;13.00;99.90;;;;;;5032398;28;20094;-57
2023/10/29 02:14:02;;;;;;;3.38;1.10;;;12.90;99.90;;;;;;5050356;28;20134;-58
2023/10/29 02:16:28;;;;;;;5.03;1.40;;;12.90;99.90;;;;;;5032674;28;20068;-59
2023/10/29 02:18:53;;;;;;;6.15;1.52;;;13.00;99.90;;;;;;5050092;28;20072;-59
2023/10/29 02:21:20;;;;;;;4.20;1.27;;;13.30;99.90;;;;;;5049649;28;20041;-56
2023/10/29 02:23:46;;;;;;;5.15;1.17;;;13.20;99.90;;;;;;5053201;28;20175;-58
2023/10/29 02:26:12;;;;;;;5.22;1.30;;;13.20;99.90;;;;;;5036041;28;20040;-58
2023/10/29 02:28:38;;;;;;;2.15;1.00;;;12.90;99.90;;;;;;5053845;28;20047;-57
2023/10/29 02:31:04;;;;;;;4.10;1.33;;;12.90;99.90;;;;;;5054021;28;20392;-58
2023/10/29 02:33:30;;;;;;;7.18;1.10;;;13.30;99.90;;;;;;5036039;28;20052;-57
2023/10/29 02:35:56;;;;;;;4.32;1.40;;;12.90;99.90;;;;;;5054542;28;20037;-59
2023/10/29 02:38:23;;;;;;;4.13;1.40;;;13.20;99.90;;;;;;5053866;28;20037;-59
2023/10/29 02:40:49;;;;;;;5.07;1.40;;;13.20;99.90;;;;;;5053573;28;20037;-59
2023/10/29 02:43:16;;;;;;;4.15;1.30;;;12.90;99.90;;;;;;5053927;28;20041;-58
2023/10/29 02:45:42;;;;;;;2.95;1.20;;;13.20;99.90;;;;;;5053898;28;20037;-57
2023/10/29 02:48:08;;;;;;;4.18;1.15;;;13.30;99.90;;;;;;5053825;28;20045;-58
2023/10/29 02:50:37;;;;;;;5.18;1.30;;;13.00;99.90;;;;;;5052716;28;20109;-58
2023/10/29 02:53:02;;;;;;;5.57;1.40;;;13.10;99.90;;;;;;5053512;28;20485;-57
2023/10/29 02:55:28;;;;;;;3.47;1.05;;;13.20;99.90;;;;;;5053144;28;20125;-57
2023/10/29 02:57:54;;;;;;;3.70;1.20;;;13.10;99.90;;;;;;5053403;28;20124;-58
2023/10/29 03:00:19;;;;;;;3.55;1.00;;;13.20;99.90;;;;;;5053627;28;20049;-59
2023/10/29 03:02:45;;;;;;;3.92;1.15;;;13.20;99.90;;;;;;5053480;28;20029;-59
2023/10/29 03:05:11;;;;;;;3.10;1.30;;;13.10;99.90;;;;;;5035849;28;20077;-59
2023/10/29 03:07:37;;;;;;;3.33;1.02;;;13.30;99.90;;;;;;5053451;28;20055;-59
2023/10/29 03:10:04;;;;;;;4.50;1.15;;;13.20;99.90;;;;;;5053500;28;20496;-58
2023/10/29 03:12:30;;;;;;;3.55;1.20;;;13.20;99.90;;;;;;5035369;28;20044;-57
2023/10/29 03:14:56;;;;;;;3.33;0.90;;;13.20;99.90;;;;;;5053053;28;20037;-58
2023/10/29 03:17:22;;;;;;;3.10;1.08;;;13.20;99.90;;;;;;5035137;28;20037;-58
2023/10/29 03:19:48;;;;;;;4.32;0.90;;;13.20;99.90;;;;;;5051405;28;20071;-58
2023/10/29 03:22:14;;;;;;;5.50;1.10;;;13.50;99.90;;;;;;5034227;28;20107;-57
2023/10/29 03:24:39;;;;;;;2.88;1.33;;;13.20;99.90;;;;;;5051969;28;20464;-58
2023/10/29 03:27:05;;;;;;;4.07;0.93;;;13.40;99.90;;;;;;5052580;28;20037;-58
2023/10/29 03:29:31;;;;;;;3.50;1.48;;;13.10;99.90;;;;;;5052142;28;20033;-59
2023/10/29 03:31:57;;;;;;;4.53;1.30;;;13.40;99.90;;;;;;5052088;28;20041;-59
2023/10/29 03:34:22;;;;;;;4.63;1.40;;;13.40;99.90;;;;;;5051099;28;20492;-58
2023/10/29 03:36:48;;;;;;;2.88;0.98;;;13.20;99.90;;;;;;5051482;28;20029;-58
2023/10/29 03:39:14;;;;;;;5.25;1.23;;;13.20;99.90;;;;;;5052277;28;20076;-57
2023/10/29 03:41:39;;;;;;;5.50;1.10;;;13.30;99.90;;;;;;5052019;28;20037;-58
2023/10/29 03:44:06;;;;;;;6.00;0.75;;;13.10;99.90;;;;;;5033840;28;20040;-58
2023/10/29 03:46:32;;;;;;;4.30;1.30;;;13.10;99.90;;;;;;5034584;28;20063;-58
2023/10/29 03:48:58;;;;;;;3.47;1.30;;;13.20;99.90;;;;;;5052212;28;20049;-57
2023/10/29 03:51:28;;;;;;;2.90;0.90;;;13.20;99.90;;;;;;5050077;28;20048;-58
2023/10/29 03:53:57;;;;;;;2.90;0.95;;;13.20;99.90;;;;;;5052339;28;20496;-58
2023/10/29 03:56:23;;;;;;;3.33;1.20;;;13.40;99.90;;;;;;5033501;28;20481;-58
2023/10/29 03:58:48;;;;;;;2.33;0.90;;;13.20;99.90;;;;;;5052080;28;20041;-57
2023/10/29 04:01:15;;;;;;;3.58;0.95;;;13.20;99.90;;;;;;5033388;28;20036;-59
2023/10/29 04:03:43;;;;;;;4.28;1.20;;;13.50;99.90;;;;;;5034428;28;20535;-60
2023/10/29 04:06:09;;;;;;;3.63;1.10;;;13.20;99.90;;;;;;5051471;28;20068;-57
2023/10/29 04:08:36;;;;;;;2.78;0.73;;;13.50;99.90;;;;;;5051374;28;20076;-58
2023/10/29 04:11:02;;;;;;;8.38;1.02;;;13.30;99.90;;;;;;5052279;28;20033;-59
2023/10/29 04:13:27;;;;;;;5.75;0.65;;;13.20;99.90;;;;;;5051044;28;20060;-59
2023/10/29 04:15:53;;;;;;;8.57;0.50;;;12.90;99.90;;;;;;5051219;28;20029;-57
2023/10/29 04:18:19;;;;;;;2.10;0.80;;;12.40;99.90;;;;;;5052247;28;20126;-54
2023/10/29 04:20:45;;;;;;;3.30;0.50;;;12.10;99.90;;;;;;5050883;28;20075;-57
2023/10/29 04:23:11;;;;;;;2.58;0.60;;;11.90;99.90;;;;;;5052090;28;20072;-53
2023/10/29 04:25:36;;;;;;;2.83;0.40;;;11.90;99.90;;;;;;5051771;28;20045;-55
2023/10/29 04:28:02;;;;;;;3.30;0.90;;;11.80;99.90;;;;;;5051998;28;20049;-57
2023/10/29 04:30:28;;;;;;;1.33;0.40;;;11.60;99.90;;;;;;5051715;28;20392;-57
2023/10/29 04:32:53;;;;;;;4.05;0.50;;;11.80;99.90;;;;;;5051153;28;20072;-55
2023/10/29 04:35:19;;;;;;;2.92;0.63;;;11.80;99.90;;;;;;5051510;28;20044;-56
2023/10/29 04:37:45;;;;;;;3.72;0.70;;;11.50;99.90;;;;;;5051831;28;20116;-56
2023/10/29 04:40:11;;;;;;;1.90;0.70;;;11.80;99.90;;;;;;5051441;28;20037;-54
2023/10/29 04:42:36;;;;;;;1.85;0.60;;;11.90;99.90;;;;;;5051544;28;20126;-55
2023/10/29 04:45:03;;;;;;;3.13;1.00;;;12.00;99.90;;;;;;5050282;28;20037;-52
2023/10/29 04:47:29;;;;;;;1.95;0.90;;;12.00;99.90;;;;;;5051099;28;20041;-54
2023/10/29 04:49:54;;;;;;;6.25;1.35;;;12.10;99.90;;;;;;5050730;28;20048;-55
2023/10/29 04:52:20;;;;;;;4.30;0.93;;;12.60;99.90;;;;;;5051030;28;20057;-53
2023/10/29 04:54:46;;;;;;;3.55;1.02;;;12.40;99.90;;;;;;5033219;28;20064;-57
2023/10/29 04:57:12;;;;;;;4.90;1.17;;;12.70;99.90;;;;;;5051433;28;20047;-56
2023/10/29 04:59:37;;;;;;;4.57;1.00;;;13.00;99.90;;;;;;5051473;28;20383;-56
2023/10/29 05:02:04;;;;;;;1.95;0.80;;;13.10;99.90;;;;;;5051119;28;20058;-53
2023/10/29 05:04:30;;;;;;;1.95;0.60;;;12.80;99.90;;;;;;5050077;28;20465;-56
2023/10/29 05:06:57;;;;;;;12.70;1.23;;;13.10;99.90;;;;;;5051110;28;20560;-54
2023/10/29 05:09:23;;;;;;;3.47;0.77;;;12.90;99.90;;;;;;5051244;28;20151;-55
2023/10/29 05:11:48;;;;;;;3.88;0.90;;;12.90;99.90;;;;;;5050807;28;20047;-56
2023/10/29 05:14:14;;;;;;;4.70;1.10;;;13.20;99.90;;;;;;5050204;28;20080;-51
2023/10/29 05:16:40;;;;;;;5.10;1.05;;;12.90;99.90;;;;;;5050922;28;20037;-52
2023/10/29 05:19:05;;;;;;;3.05;0.80;;;13.10;99.90;;;;;;5051002;28;20049;-57
2023/10/29 05:21:31;;;;;;;6.72;1.10;;;13.10;99.90;;;;;;5050598;28;20045;-53
2023/10/29 05:23:57;;;;;;;3.13;0.82;;;13.20;99.90;;;;;;5033126;28;20044;-51
2023/10/29 05:26:22;;;;;;;7.97;0.80;;;13.20;99.90;;;;;;5050761;28;20472;-53
2023/10/29 05:28:48;;;;;;;2.45;0.70;;;13.20;99.90;;;;;;5050616;28;20044;-53
2023/10/29 05:31:14;;;;;;;4.45;0.85;;;13.10;99.90;;;;;;5050617;28;20116;-52
2023/10/29 05:33:39;;;;;;;2.55;0.93;;;13.20;99.90;;;;;;5032987;28;20033;-57
2023/10/29 05:36:05;;;;;;;3.97;0.80;;;13.20;99.90;;;;;;5050811;28;20365;-54
2023/10/29 05:38:31;;;;;;;7.40;1.35;;;13.20;99.90;;;;;;5050256;28;20032;-52
2023/10/29 05:40:56;;;;;;;2.92;1.17;;;13.10;99.90;;;;;;5050194;28;20041;-53
2023/10/29 05:43:22;;;;;;;2.72;0.80;;;13.20;99.90;;;;;;5050382;28;20077;-50
2023/10/29 05:45:48;;;;;;;2.40;0.70;;;13.10;99.90;;;;;;5050857;28;20037;-57
2023/10/29 05:48:13;;;;;;;2.63;1.00;;;13.10;99.90;;;;;;5050647;28;20041;-51
2023/10/29 05:50:39;;;;;;;2.58;0.73;;;13.10;99.90;;;;;;5049873;28;20500;-55
2023/10/29 05:53:05;;;;;;;2.47;0.63;;;13.10;99.90;;;;;;5050470;28;20476;-56
2023/10/29 05:55:31;;;;;;;3.33;0.90;;;13.00;99.90;;;;;;5050686;28;20032;-53
2023/10/29 05:57:58;;;;;;;3.55;0.90;;;13.10;99.90;;;;;;5054249;28;20408;-55
2023/10/29 06:00:23;;;;;;;4.00;1.10;;;13.00;99.90;;;;;;5054448;28;20041;-55
2023/10/29 06:02:49;;;;;;;3.65;0.77;;;13.00;99.90;;;;;;5054402;28;20087;-55
2023/10/29 06:05:15;;;;;;;2.00;0.63;;;13.10;99.90;;;;;;5054251;28;20043;-54
2023/10/29 06:07:44;;;;;;;2.92;0.90;;;13.00;99.90;;;;;;5054494;28;20432;-51
2023/10/29 06:10:13;;;;;;;2.50;0.75;;;13.00;99.90;;;;;;5036790;28;20037;-50
2023/10/29 06:12:40;;;;;;;3.00;0.90;;;13.10;99.90;;;;;;5054264;28;20044;-58
2023/10/29 06:15:11;;;;;;;3.42;0.70;;;13.00;99.90;;;;;;5036497;28;20103;-55
2023/10/29 06:17:37;;;;;;;3.60;0.88;;;13.10;99.90;;;;;;5052947;28;20036;-55
2023/10/29 06:20:04;;;;;;;3.75;0.68;;;13.10;99.90;;;;;;5051925;28;20040;-55
2023/10/29 06:22:31;;;;;;;2.58;0.60;;;12.80;99.90;;;;;;5053893;28;20036;-54
2023/10/29 06:24:57;;;;;;;5.38;1.02;;;13.00;99.90;;;;;;5053868;28;20090;-56
2023/10/29 06:27:22;;;;;;;4.05;0.85;;;13.00;99.90;;;;;;5035590;28;20127;-52
2023/10/29 06:29:48;;;;;;;2.67;0.77;;;13.00;99.90;;;;;;5054045;28;20049;-54
2023/10/29 06:32:14;;;;;;;4.07;0.60;;;13.10;99.90;;;;;;5036068;28;20189;-54
2023/10/29 06:34:39;;;;;;;6.05;0.80;;;12.90;99.90;;;;;;5053654;28;20033;-49
2023/10/29 06:37:05;;;;;;;2.80;0.80;;;12.90;99.90;;;;;;5053898;28;20112;-53
2023/10/29 06:39:31;;;;;;;4.25;1.00;;;12.80;99.90;;;;;;5035621;28;20121;-54
2023/10/29 06:41:58;;;;;;;3.13;0.60;;;12.90;99.90;;;;;;5036203;28;20045;-54
2023/10/29 06:44:24;;;;;;;4.43;0.65;;;12.80;99.90;;;;;;5053768;28;20119;-52
2023/10/29 06:46:50;;;;;;;4.95;0.80;;;12.90;99.90;;;;;;5034542;28;20178;-55
2023/10/29 06:49:16;;;;;;;7.03;0.95;;;12.80;99.90;;;;;;5035320;28;20443;-55
2023/10/29 06:51:42;;;;;;;5.95;0.80;;;12.90;99.90;;;;;;5053038;28;20252;-53
2023/10/29 06:54:07;;;;;;;5.80;0.88;;;12.90;99.90;;;;;;5053318;28;20502;-53
2023/10/29 06:56:33;;;;;;;8.00;0.93;;;12.90;99.90;;;;;;5053742;28;20087;-51
2023/10/29 06:58:59;;;;;;;5.40;0.60;;;12.80;99.90;;;;;;5053439;28;20037;-55
2023/10/29 07:01:24;;;;;;;5.00;0.60;;;12.70;99.90;;;;;;5053507;28;20037;-53
2023/10/29 07:03:50;;;;;;;6.47;1.25;;;12.70;99.90;;;;;;5053677;28;20064;-52
2023/10/29 07:06:16;;;;;;;7.15;1.10;;;12.80;99.90;;;;;;5034971;28;20037;-52
2023/10/29 07:08:42;;;;;;;3.85;0.70;;;12.80;99.90;;;;;;5052105;28;20045;-53
2023/10/29 07:11:07;;;;;;;5.30;1.08;;;12.90;99.90;;;;;;5053254;28;20369;-53
2023/10/29 07:13:34;;;;;;;3.50;0.70;;;12.90;99.90;;;;;;5035315;28;20094;-51
2023/10/29 07:16:00;;;;;;;3.55;0.70;;;12.90;99.90;;;;;;5053117;28;20036;-52
2023/10/29 07:18:26;;;;;;;3.53;1.10;;;12.80;99.90;;;;;;5035368;28;20048;-52
2023/10/29 07:20:53;;;;;;;4.43;1.10;;;12.80;99.90;;;;;;5052532;28;20037;-54
2023/10/29 07:23:20;;;;;;;6.05;1.00;;;12.90;99.90;;;;;;5052785;28;20469;-52
2023/10/29 07:25:47;;;;;;;5.15;0.95;;;12.80;99.90;;;;;;5052999;28;20048;-53
2023/10/29 07:28:14;;;;;;;4.80;1.00;;;12.80;99.90;;;;;;5052452;28;20045;-54
2023/10/29 07:30:39;;;;;;;4.45;1.25;;;12.80;99.90;;;;;;5046138;28;20500;-57
2023/10/29 07:33:05;;;;;;;7.60;1.58;;;12.80;99.90;;;;;;5031216;28;20037;-55
2023/10/29 07:35:31;;;;;;;4.03;0.95;;;12.80;99.90;;;;;;5048412;28;20044;-53
2023/10/29 07:37:57;;;;;;;4.22;1.20;;;12.80;99.90;;;;;;5030365;28;20068;-55
2023/10/29 07:40:22;;;;;;;4.63;0.80;;;12.90;99.90;;;;;;5033995;28;20041;-54
2023/10/29 07:42:48;;;;;;;6.57;1.00;;;12.90;99.90;;;;;;5043506;28;20535;-53
2023/10/29 07:45:14;;;;;;;6.88;1.05;;;12.80;99.90;;;;;;5040114;28;20029;-54
2023/10/29 07:47:39;;;;;;;5.43;0.90;;;12.80;99.90;;;;;;5023130;28;20041;-53
2023/10/29 07:50:08;;;;;;;9.73;0.90;;;12.80;99.90;;;;;;5022808;28;20400;-55
2023/10/29 07:52:39;;;;;;;5.93;1.00;;;12.80;99.90;;;;;;5041853;28;20053;-57
2023/10/29 07:55:06;;;;;;;8.25;1.20;;;12.80;99.90;;;;;;5041113;28;20049;-55
2023/10/29 07:57:33;;;;;;;5.18;1.02;;;12.80;99.90;;;;;;5040837;28;20044;-55
2023/10/29 07:59:59;;;;;;;3.83;0.90;;;12.90;99.90;;;;;;5040365;28;20443;-52
2023/10/29 08:02:24;;;;;;;4.22;0.70;;;12.80;99.90;;;;;;5024849;28;20045;-53
2023/10/29 08:04:50;;;;;;;4.20;0.70;;;12.80;99.90;;;;;;5038923;28;20040;-56
2023/10/29 08:07:16;;;;;;;5.35;0.90;;;12.90;99.90;;;;;;5039456;28;20041;-52
2023/10/29 08:09:42;;;;;;;6.45;1.00;;;12.90;99.90;;;;;;5041090;28;20075;-56
2023/10/29 08:12:08;;;;;;;4.95;1.50;;;12.90;99.90;;;;;;5039840;28;20510;-54
2023/10/29 08:14:33;;;;;;;4.53;1.00;;;12.90;99.90;;;;;;5022021;28;20484;-53
2023/10/29 08:16:59;;;;;;;6.65;0.65;;;13.00;99.90;;;;;;5040910;28;20045;-56
2023/10/29 08:19:26;;;;;;;7.20;1.00;;;13.00;99.90;;;;;;5028831;28;20036;-56
2023/10/29 08:21:52;;;;;;;5.15;1.45;;;13.00;99.90;;;;;;5039968;28;20037;-52
2023/10/29 08:24:18;;;;;;;5.50;1.20;;;13.10;99.90;;;;;;5039265;28;20511;-53
2023/10/29 08:26:44;;;;;;;4.90;0.98;;;13.00;99.90;;;;;;5040102;28;20052;-54
2023/10/29 08:29:11;;;;;;;5.10;0.98;;;13.10;99.90;;;;;;5040710;28;20106;-54
2023/10/29 08:31:37;;;;;;;4.57;0.95;;;13.20;99.90;;;;;;5041267;28;20029;-51
2023/10/29 08:34:04;;;;;;;6.53;0.95;;;13.20;99.90;;;;;;5029025;28;20036;-56
2023/10/29 08:36:29;;;;;;;5.30;0.85;;;13.20;99.90;;;;;;5020489;28;20617;-55
2023/10/29 08:38:55;;;;;;;3.67;0.75;;;13.30;99.90;;;;;;5020205;28;20048;-56
2023/10/29 08:41:20;;;;;;;2.85;0.70;;;13.20;99.90;;;;;;5038630;28;20069;-53
2023/10/29 08:43:46;;;;;;;6.32;0.90;;;13.40;99.90;;;;;;5040318;28;20040;-53
2023/10/29 08:46:12;;;;;;;4.75;0.80;;;13.40;99.90;;;;;;5023450;28;20040;-54
2023/10/29 08:48:39;;;;;;;6.93;1.10;;;13.40;99.90;;;;;;5041450;28;20049;-55
2023/10/29 08:51:05;;;;;;;5.43;1.15;;;13.40;99.90;;;;;;5038871;28;20049;-53
2023/10/29 08:53:31;;;;;;;7.57;1.17;;;13.50;99.90;;;;;;5039956;28;20041;-53
2023/10/29 08:55:57;;;;;;;5.70;1.38;;;13.60;99.90;;;;;;5040417;28;20048;-52
2023/10/29 08:58:22;;;;;;;5.35;1.00;;;13.60;99.90;;;;;;5037497;28;20567;-54
2023/10/29 09:00:48;;;;;;;4.57;0.93;;;13.60;99.90;;;;;;5039443;28;20384;-53
2023/10/29 09:03:14;;;;;;;3.95;1.30;;;13.70;99.90;;;;;;5021660;28;20060;-54
2023/10/29 09:05:41;;;;;;;7.07;1.42;;;13.90;99.90;;;;;;5038855;28;20380;-51
2023/10/29 09:08:07;;;;;;;4.85;1.27;;;13.90;99.90;;;;;;5038168;28;20036;-53
2023/10/29 09:10:33;;;;;;;7.20;1.20;;;14.00;99.90;;;;;;5040265;28;20500;-51
2023/10/29 09:13:01;;;;;;;5.40;1.40;;;14.00;99.90;;;;;;5038945;28;20048;-53
2023/10/29 09:15:27;;;;;;;5.95;1.10;;;13.80;99.90;;;;;;5022294;28;20044;-52
2023/10/29 09:17:53;;;;;;;7.88;1.40;;;13.90;99.90;;;;;;5039354;28;20045;-54
2023/10/29 09:20:19;;;;;;;7.07;1.20;;;13.90;99.90;;;;;;5022469;28;20131;-54
2023/10/29 09:22:46;;;;;;;9.20;1.25;;;13.80;99.90;;;;;;5040461;28;20855;-53
2023/10/29 09:25:11;;;;;;;5.40;1.10;;;13.80;99.90;;;;;;5040197;28;20063;-54
2023/10/29 09:27:37;;;;;;;5.20;1.13;;;13.70;99.90;;;;;;5039904;28;20033;-53
2023/10/29 09:30:05;;;;;;;7.10;1.83;;;13.80;99.90;;;;;;5021261;28;20052;-54
2023/10/29 09:32:34;;;;;;;7.40;1.42;;;13.80;99.90;;;;;;5022208;28;20041;-54
2023/10/29 09:34:59;;;;;;;6.72;1.70;;;13.90;99.90;;;;;;5039913;28;20603;-53
2023/10/29 09:37:25;;;;;;;9.93;1.20;;;13.80;99.90;;;;;;5049914;28;20162;-55
2023/10/29 09:39:51;;;;;;;8.40;1.50;;;13.80;99.90;;;;;;5048847;28;20084;-53
2023/10/29 09:42:19;;;;;;;7.82;1.30;;;13.80;99.90;;;;;;5048625;28;20051;-56
2023/10/29 09:44:49;;;;;;;6.70;1.33;;;13.80;99.90;;;;;;5048793;28;20330;-54
2023/10/29 09:47:18;;;;;;;7.35;1.88;;;13.80;99.90;;;;;;5049923;28;20068;-56
2023/10/29 09:49:44;;;;;;;9.80;1.50;;;13.90;99.90;;;;;;5049770;28;20407;-53
2023/10/29 09:52:11;;;;;;;6.32;1.55;;;13.90;99.90;;;;;;5049671;28;20041;-51
2023/10/29 09:54:40;;;;;;;7.30;1.65;;;13.90;99.90;;;;;;5050569;28;20178;-54
2023/10/29 09:57:06;;;;;;;5.88;1.55;;;13.90;99.90;;;;;;5050528;28;20044;-50
2023/10/29 09:59:33;;;;;;;5.90;1.45;;;13.90;99.90;;;;;;5032776;28;20048;-54
2023/10/29 10:02:00;;;;;;;4.90;1.20;;;13.80;99.90;;;;;;5032898;28;20129;-57
2023/10/29 10:04:25;;;;;;;6.32;1.30;;;13.80;99.90;;;;;;5049964;28;20043;-54
2023/10/29 10:06:53;;;;;;;9.00;1.35;;;13.80;99.90;;;;;;5050246;28;20412;-55
2023/10/29 10:09:19;;;;;;;7.38;1.40;;;13.80;99.90;;;;;;5050405;28;20041;-53
2023/10/29 10:11:45;;;;;;;10.05;1.45;;;13.80;99.90;;;;;;5032448;28;20125;-54
2023/10/29 10:14:26;;;;;;;7.35;1.40;;;13.90;99.90;;;;;;5050745;28;20124;-55
2023/10/29 10:17:11;;;;;;;10.27;1.73;;;14.00;99.90;;;;;;5050593;28;20056;-55
2023/10/29 10:19:37;;;;;;;10.18;1.95;;;14.00;99.90;;;;;;5032629;28;20084;-54
2023/10/29 10:22:06;;;;;;;11.13;2.65;;;14.00;99.90;;;;;;5049754;28;20098;-52
2023/10/29 10:24:46;;;;;;;5.13;1.40;;;13.90;99.90;;;;;;5050764;28;20119;-55
2023/10/29 10:27:12;;;;;;;9.57;2.08;;;13.90;99.90;;;;;;5031855;28;20033;-58
2023/10/29 10:29:38;;;;;;;9.55;2.15;;;13.80;99.90;;;;;;5032141;28;20075;-56
2023/10/29 10:32:05;;;;;;;6.30;1.30;;;13.90;99.90;;;;;;5049698;28;20080;-53
2023/10/29 10:34:37;;;;;;;9.75;1.58;;;13.90;99.90;;;;;;5050193;28;20033;-51
2023/10/29 10:37:04;;;;;;;9.77;1.83;;;13.90;99.90;;;;;;5050005;28;20029;-54
2023/10/29 10:39:34;;;;;;;10.45;1.90;;;14.00;99.90;;;;;;5032713;28;20033;-53
2023/10/29 10:42:02;;;;;;;6.80;1.65;;;14.00;99.90;;;;;;5050225;28;20112;-55
2023/10/29 10:44:31;;;;;;;11.43;1.67;;;14.20;99.90;;;;;;5052809;28;20045;-53
2023/10/29 10:46:59;;;;;;;10.00;1.45;;;14.10;99.90;;;;;;5053619;28;20052;-55
2023/10/29 10:49:26;;;;;;;9.43;1.95;;;14.10;99.90;;;;;;5053188;28;20408;-55
2023/10/29 10:51:58;;;;;;;10.48;1.98;;;14.10;99.90;;;;;;5035241;28;20406;-53
2023/10/29 10:54:24;;;;;;;8.88;1.50;;;14.10;99.90;;;;;;5053228;28;20048;-55
2023/10/29 10:56:52;;;;;;;14.63;1.40;;;14.00;99.90;;;;;;5053678;28;20037;-54
2023/10/29 10:59:19;;;;;;;7.05;1.52;;;14.00;99.90;;;;;;5053557;28;20463;-55
2023/10/29 11:01:45;;;;;;;9.88;1.73;;;14.00;99.90;;;;;;5053643;28;20059;-55
2023/10/29 11:04:11;;;;;;;7.80;1.55;;;14.10;99.90;;;;;;5053294;28;20055;-55
2023/10/29 11:06:39;;;;;;;9.80;1.55;;;14.20;99.90;;;;;;5053667;28;20432;-56
2023/10/29 11:09:12;;;;;;;7.97;1.45;;;14.30;99.90;;;;;;5053528;28;20109;-57
2023/10/29 11:11:48;;;;;;;9.80;2.85;;;14.70;99.90;;;;;;5052562;28;20468;-56
2023/10/29 11:14:14;;;;;;;7.38;1.50;;;14.80;99.90;;;;;;5053021;28;20186;-58
2023/10/29 11:16:51;;;;;;;6.85;0.90;;;14.90;99.90;;;;;;5053008;28;20044;-54
2023/10/29 11:19:44;;;;;;;7.25;1.10;;;14.90;99.90;;;;;;5053343;28;20040;-54
2023/10/29 11:22:19;;;;;;;7.90;1.17;;;14.80;99.90;;;;;;5053016;28;20538;-54
2023/10/29 11:25:08;;;;;;;5.88;1.42;;;14.70;99.90;;;;;;5052527;28;20380;-57
2023/10/29 11:27:37;;;;;;;8.05;1.60;;;14.70;99.90;;;;;;5052891;28;20090;-55
2023/10/29 11:30:23;;;;;;;11.30;1.80;;;14.70;99.90;;;;;;5034845;28;20040;-58
2023/10/29 11:33:14;;;;;;;7.85;1.55;;;14.60;99.90;;;;;;5053172;28;20037;-54
2023/10/29 11:35:40;;;;;;;8.95;1.38;;;14.60;99.90;;;;;;5052831;28;20025;-54
2023/10/29 11:38:27;;;;;;;6.47;1.48;;;14.60;99.90;;;;;;5053133;28;20044;-57
2023/10/29 11:40:53;;;;;;;6.00;1.45;;;14.50;99.90;;;;;;5034982;28;20048;-57
2023/10/29 11:43:22;;;;;;;6.20;1.45;;;14.50;99.90;;;;;;5052957;28;20108;-55
2023/10/29 11:46:01;;;;;;;8.52;1.67;;;14.50;99.90;;;;;;5052613;28;20045;-54
2023/10/29 11:48:31;;;;;;;8.70;1.30;;;14.40;99.90;;;;;;5052109;28;20481;-53
2023/10/29 11:51:08;;;;;;;9.25;1.48;;;14.40;99.90;;;;;;5052158;28;21106;-52
2023/10/29 11:53:35;;;;;;;7.63;1.10;;;14.40;99.90;;;;;;5052388;28;20040;-53
2023/10/29 11:56:09;;;;;;;9.40;1.63;;;14.30;99.90;;;;;;5034219;28;20037;-56
2023/10/29 11:58:36;;;;;;;7.18;1.10;;;14.40;99.90;;;;;;5052712;28;20045;-56
2023/10/29 12:01:02;;;;;;;9.25;1.38;;;14.40;99.90;;;;;;5034624;28;20033;-55
2023/10/29 12:03:31;;;;;;;10.68;1.45;;;14.30;99.90;;;;;;5034594;28;20130;-53
2023/10/29 12:05:57;;;;;;;10.35;1.40;;;14.40;99.90;;;;;;5052508;28;20044;-57
2023/10/29 12:08:24;;;;;;;6.85;1.70;;;14.30;99.90;;;;;;5052012;28;20044;-55
2023/10/29 12:10:52;;;;;;;9.27;1.63;;;14.40;99.90;;;;;;5050802;28;20697;-56
2023/10/29 12:13:18;;;;;;;9.10;1.67;;;14.40;99.90;;;;;;5034180;28;20033;-55
2023/10/29 12:15:57;;;;;;;12.98;2.00;;;14.40;99.90;;;;;;5051732;28;20075;-57
2023/10/29 12:18:24;;;;;;;8.00;1.70;;;14.30;99.90;;;;;;5052176;28;20068;-55
2023/10/29 12:21:01;;;;;;;8.02;1.55;;;14.30;99.90;;;;;;5051485;28;20051;-54
2023/10/29 12:23:27;;;;;;;7.22;1.70;;;14.30;99.90;;;;;;5034021;28;20040;-54
2023/10/29 12:25:53;;;;;;;11.30;2.10;;;14.30;99.90;;;;;;5052106;28;20045;-55
2023/10/29 12:28:19;;;;;;;9.25;1.92;;;14.20;99.90;;;;;;5051626;28;20055;-54
2023/10/29 12:30:50;;;;;;;7.60;1.98;;;14.20;99.90;;;;;;5052206;28;20044;-55
2023/10/29 12:33:25;;;;;;;7.88;1.00;;;14.20;99.90;;;;;;5051599;28;20091;-54
2023/10/29 12:35:53;;;;;;;5.32;1.13;;;14.10;99.90;;;;;;5051614;28;20040;-57
2023/10/29 12:38:20;;;;;;;9.77;1.77;;;14.10;99.90;;;;;;5051528;28;20045;-54
2023/10/29 12:41:08;;;;;;;8.40;1.65;;;14.10;99.90;;;;;;5051962;28;20076;-55
2023/10/29 12:43:40;;;;;;;8.55;1.90;;;14.00;99.90;;;;;;5051550;28;20041;-54
2023/10/29 12:46:13;;;;;;;9.00;1.38;;;14.00;99.90;;;;;;5033750;28;20385;-56